Time;durP1;ratioP1;P1;durP2;ratioP2;P2;SDS_P1;SDS_P2;PMS_P1;PMS_P2;Temp;Humidity;BMP_temperature;BMP_pressure;BME280_temperature;BME280_humidity;BME280_pressure;Samples;Min_cycle;Max_cycle;Signal;HPM_P1;HPM_P2
2022/12/04 00:00:52;;;;;;;13.57;11.68;;;16.10;50.50;;;;;;5090249;28;45370;-73
2022/12/04 00:03:19;;;;;;;13.23;11.18;;;16.00;50.50;;;;;;5090448;28;45236;-74
2022/12/04 00:05:47;;;;;;;14.00;11.27;;;16.00;50.50;;;;;;5089637;28;46336;-74
2022/12/04 00:08:14;;;;;;;13.60;10.82;;;16.00;50.60;;;;;;5090314;28;45441;-74
2022/12/04 00:10:43;;;;;;;13.20;10.98;;;16.00;50.60;;;;;;5090080;28;45321;-73
2022/12/04 00:13:10;;;;;;;15.60;11.23;;;15.90;50.60;;;;;;5089507;28;45232;-74
2022/12/04 00:15:41;;;;;;;13.45;10.20;;;15.90;50.60;;;;;;5089675;28;45315;-74
2022/12/04 00:18:08;;;;;;;12.65;9.60;;;15.90;50.60;;;;;;5089961;28;45301;-74
2022/12/04 00:20:38;;;;;;;14.75;11.20;;;15.90;50.60;;;;;;5090105;28;45236;-74
2022/12/04 00:23:06;;;;;;;13.55;10.15;;;15.80;50.70;;;;;;5090118;28;45533;-74
2022/12/04 00:25:33;;;;;;;12.70;10.25;;;15.80;50.70;;;;;;5089559;28;46414;-74
2022/12/04 00:28:00;;;;;;;11.68;9.45;;;15.80;50.80;;;;;;5089744;28;45185;-74
2022/12/04 00:30:27;;;;;;;12.45;9.77;;;15.80;50.80;;;;;;5089686;28;45193;-74
2022/12/04 00:32:54;;;;;;;13.25;10.10;;;15.70;50.80;;;;;;5089995;28;45452;-74
2022/12/04 00:35:21;;;;;;;13.77;9.98;;;15.70;50.90;;;;;;5089431;28;45686;-74
2022/12/04 00:37:48;;;;;;;12.15;10.02;;;15.70;51.00;;;;;;5089354;28;45383;-74
2022/12/04 00:40:16;;;;;;;10.55;8.70;;;15.70;51.00;;;;;;5089393;28;45313;-74
2022/12/04 00:42:43;;;;;;;13.38;9.38;;;15.60;51.00;;;;;;5089629;28;45515;-74
2022/12/04 00:45:11;;;;;;;11.95;9.05;;;15.60;51.00;;;;;;5089219;28;45277;-74
2022/12/04 00:47:43;;;;;;;11.20;9.15;;;15.60;51.10;;;;;;5104731;27;45292;-75
2022/12/04 00:50:11;;;;;;;11.38;8.68;;;15.50;51.00;;;;;;5109917;27;45160;-74
2022/12/04 00:52:38;;;;;;;11.20;8.63;;;15.50;51.10;;;;;;5109649;27;45445;-75
2022/12/04 00:55:05;;;;;;;12.77;8.65;;;15.50;51.10;;;;;;5109718;27;46595;-75
2022/12/04 00:57:34;;;;;;;10.88;8.32;;;15.50;51.10;;;;;;5109596;27;45252;-74
2022/12/04 01:00:01;;;;;;;11.57;8.70;;;15.40;51.70;;;;;;5108985;27;45304;-74
2022/12/04 01:02:28;;;;;;;12.07;7.97;;;15.40;51.10;;;;;;5109607;27;45271;-74
2022/12/04 01:04:54;;;;;;;10.45;8.02;;;15.40;51.10;;;;;;5109551;27;45318;-74
2022/12/04 01:07:21;;;;;;;11.65;8.38;;;15.40;51.20;;;;;;5109620;27;45248;-74
2022/12/04 01:09:48;;;;;;;9.70;8.23;;;15.30;51.20;;;;;;5109726;27;45177;-74
2022/12/04 01:12:15;;;;;;;12.93;8.73;;;15.40;51.20;;;;;;5109660;27;45383;-74
2022/12/04 01:14:43;;;;;;;9.63;7.80;;;15.30;51.20;;;;;;5109332;27;46398;-75
2022/12/04 01:17:10;;;;;;;9.75;8.00;;;15.30;51.30;;;;;;5109198;27;45352;-74
2022/12/04 01:19:37;;;;;;;10.35;7.43;;;15.40;51.20;;;;;;5109426;27;45238;-74
2022/12/04 01:22:04;;;;;;;10.57;8.23;;;15.50;51.10;;;;;;5109674;27;45477;-74
2022/12/04 01:24:31;;;;;;;9.52;7.65;;;15.50;50.90;;;;;;5109067;27;46458;-74
2022/12/04 01:26:58;;;;;;;10.70;7.65;;;15.60;50.90;;;;;;5109162;27;45241;-75
2022/12/04 01:29:24;;;;;;;10.20;7.95;;;15.60;50.80;;;;;;5109243;27;45310;-74
2022/12/04 01:31:53;;;;;;;9.30;7.75;;;15.70;50.70;;;;;;5109499;27;45317;-74
2022/12/04 01:34:19;;;;;;;11.77;7.38;;;15.80;50.60;;;;;;5108975;27;46725;-74
2022/12/04 01:36:47;;;;;;;8.60;7.28;;;15.90;50.50;;;;;;5109075;27;45304;-74
2022/12/04 01:39:14;;;;;;;10.80;7.88;;;15.90;50.40;;;;;;5109278;27;45500;-74
2022/12/04 01:41:40;;;;;;;11.05;7.75;;;15.90;50.40;;;;;;5109140;27;45450;-74
2022/12/04 01:44:09;;;;;;;10.27;7.28;;;16.00;50.30;;;;;;5108167;27;45244;-74
2022/12/04 01:46:37;;;;;;;11.73;7.93;;;16.00;50.30;;;;;;5103826;27;45320;-74
2022/12/04 01:49:05;;;;;;;10.63;7.65;;;16.00;50.90;;;;;;5109127;27;45294;-74
2022/12/04 01:51:34;;;;;;;10.88;7.38;;;16.00;50.20;;;;;;5108987;27;45395;-74
2022/12/04 01:54:02;;;;;;;9.25;7.28;;;16.00;50.20;;;;;;5108774;27;45525;-75
2022/12/04 01:56:32;;;;;;;8.18;7.15;;;16.00;50.20;;;;;;5108817;27;45393;-74
2022/12/04 01:58:59;;;;;;;11.15;7.57;;;16.00;50.20;;;;;;5109014;27;45289;-74
2022/12/04 02:01:26;;;;;;;9.88;7.13;;;16.00;50.10;;;;;;5108877;27;45478;-74
2022/12/04 02:03:53;;;;;;;11.10;7.70;;;16.00;50.20;;;;;;5108505;27;46406;-75
2022/12/04 02:06:21;;;;;;;10.00;7.50;;;16.00;50.20;;;;;;5108585;27;45403;-74
2022/12/04 02:08:48;;;;;;;10.15;6.85;;;16.00;50.20;;;;;;5108703;27;45205;-74
2022/12/04 02:11:20;;;;;;;9.77;7.22;;;16.00;50.20;;;;;;5108317;27;45195;-74
2022/12/04 02:13:52;;;;;;;9.98;7.50;;;16.00;50.20;;;;;;5108595;27;45303;-74
2022/12/04 02:16:22;;;;;;;9.00;6.95;;;16.00;50.10;;;;;;5108437;27;45371;-74
2022/12/04 02:18:54;;;;;;;9.82;7.30;;;16.00;50.20;;;;;;5108307;27;45196;-74
2022/12/04 02:21:26;;;;;;;9.73;7.47;;;16.00;50.20;;;;;;5108562;27;45189;-74
2022/12/04 02:24:28;;;;;;;10.85;7.28;;;15.90;50.20;;;;;;5108418;27;45502;-74
2022/12/04 02:26:56;;;;;;;7.60;6.30;;;15.90;50.20;;;;;;5104215;27;45204;-74
2022/12/04 02:29:30;;;;;;;9.38;6.65;;;15.90;50.30;;;;;;5108311;27;45356;-74
2022/12/04 02:31:59;;;;;;;10.02;6.60;;;15.90;50.30;;;;;;5108381;27;45407;-74
2022/12/04 02:34:27;;;;;;;8.77;6.38;;;15.90;50.40;;;;;;5108111;27;45292;-74
2022/12/04 02:36:57;;;;;;;10.13;6.93;;;15.80;50.30;;;;;;5108376;27;45224;-74
2022/12/04 02:39:25;;;;;;;8.65;6.55;;;15.80;50.40;;;;;;5108417;27;45326;-74
2022/12/04 02:41:55;;;;;;;9.75;6.72;;;15.80;50.50;;;;;;5108205;27;45621;-74
2022/12/04 02:44:23;;;;;;;8.77;6.30;;;15.70;51.10;;;;;;5108159;27;46652;-74
2022/12/04 02:46:54;;;;;;;7.50;5.75;;;15.70;50.50;;;;;;5103171;27;45376;-73
2022/12/04 02:49:33;;;;;;;7.38;6.28;;;15.70;50.50;;;;;;5108302;27;45219;-74
2022/12/04 02:52:00;;;;;;;7.47;6.10;;;15.70;50.60;;;;;;5107811;27;45327;-74
2022/12/04 02:54:30;;;;;;;7.40;5.65;;;15.60;50.60;;;;;;5107294;27;46425;-74
2022/12/04 02:56:57;;;;;;;8.82;6.45;;;15.60;50.70;;;;;;5107058;27;45315;-74
2022/12/04 02:59:26;;;;;;;8.13;6.40;;;15.60;50.70;;;;;;5107704;27;45245;-73
2022/12/04 03:01:55;;;;;;;7.50;5.95;;;15.50;50.60;;;;;;5107858;27;45135;-73
2022/12/04 03:04:23;;;;;;;8.02;6.10;;;15.50;50.70;;;;;;5107611;27;45347;-74
2022/12/04 03:06:51;;;;;;;7.78;6.03;;;15.50;50.60;;;;;;5107727;27;45352;-74
2022/12/04 03:09:19;;;;;;;7.38;6.05;;;15.50;50.80;;;;;;5107697;27;45243;-73
2022/12/04 03:11:54;;;;;;;7.55;5.82;;;15.50;50.80;;;;;;5107930;27;45114;-75
2022/12/04 03:14:22;;;;;;;7.65;5.80;;;15.40;50.80;;;;;;5107658;27;45595;-74
2022/12/04 03:16:49;;;;;;;6.40;5.05;;;15.40;50.80;;;;;;5107586;27;45311;-74
2022/12/04 03:19:19;;;;;;;7.35;5.47;;;15.40;50.80;;;;;;5107715;27;45326;-74
2022/12/04 03:21:48;;;;;;;7.57;5.28;;;15.40;50.90;;;;;;5107721;27;45358;-74
2022/12/04 03:24:17;;;;;;;6.90;5.15;;;15.40;50.90;;;;;;5106039;27;45337;-74
2022/12/04 03:26:46;;;;;;;6.95;5.00;;;15.30;50.90;;;;;;5107234;27;45252;-74
2022/12/04 03:29:15;;;;;;;6.38;5.25;;;15.30;50.90;;;;;;5107718;27;45307;-74
2022/12/04 03:31:44;;;;;;;7.43;5.22;;;15.30;50.90;;;;;;5107761;27;45372;-74
2022/12/04 03:34:11;;;;;;;7.10;5.15;;;15.30;50.90;;;;;;5107052;27;45208;-74
2022/12/04 03:36:41;;;;;;;7.32;5.28;;;15.30;51.00;;;;;;5107616;27;45346;-74
2022/12/04 03:39:11;;;;;;;7.07;5.20;;;15.20;50.90;;;;;;5107367;27;45243;-74
2022/12/04 03:41:42;;;;;;;7.05;5.35;;;15.30;51.10;;;;;;5107587;27;45376;-74
2022/12/04 03:44:12;;;;;;;5.93;4.88;;;15.30;51.00;;;;;;5107207;27;47391;-74
2022/12/04 03:46:39;;;;;;;5.22;4.47;;;15.30;50.90;;;;;;5101997;27;45418;-75
2022/12/04 03:49:10;;;;;;;6.70;4.70;;;15.40;50.70;;;;;;5107482;27;45244;-74
2022/12/04 03:51:41;;;;;;;5.28;4.47;;;15.50;50.60;;;;;;5106178;27;45442;-74
2022/12/04 03:54:09;;;;;;;6.05;4.43;;;15.50;50.60;;;;;;5106242;27;46338;-74
2022/12/04 03:56:38;;;;;;;6.43;4.60;;;15.60;50.50;;;;;;5106947;27;45251;-74
2022/12/04 03:59:06;;;;;;;5.10;3.95;;;15.60;50.40;;;;;;5107363;27;45489;-74
2022/12/04 04:01:35;;;;;;;5.53;4.22;;;15.70;50.30;;;;;;5107327;27;45385;-74
2022/12/04 04:04:03;;;;;;;5.05;4.40;;;15.70;50.20;;;;;;5106685;27;46411;-74
2022/12/04 04:06:32;;;;;;;6.45;4.93;;;15.80;50.10;;;;;;5106913;27;45253;-74
2022/12/04 04:09:02;;;;;;;6.00;4.20;;;15.80;50.10;;;;;;5107053;27;45296;-74
2022/12/04 04:11:32;;;;;;;5.55;4.68;;;15.80;50.00;;;;;;5107233;27;45336;-75
2022/12/04 04:25:10;;;;;;;5.13;3.65;;;15.90;49.90;;;;;;5106853;27;45760;-75
2022/12/04 04:27:37;;;;;;;5.60;4.80;;;15.90;49.90;;;;;;5106617;27;45204;-76
2022/12/04 04:30:05;;;;;;;5.28;4.25;;;15.90;50.00;;;;;;5106802;27;45382;-76
2022/12/04 04:32:34;;;;;;;5.32;3.78;;;15.90;50.00;;;;;;5106910;27;45407;-76
2022/12/04 04:35:09;;;;;;;5.45;4.18;;;15.90;50.10;;;;;;5108254;27;45273;-76
2022/12/04 04:37:41;;;;;;;4.45;3.70;;;15.80;50.00;;;;;;5110067;27;45221;-76
2022/12/04 04:40:13;;;;;;;4.78;3.75;;;15.90;50.00;;;;;;5110072;27;45333;-76
2022/12/04 04:42:43;;;;;;;4.78;3.95;;;15.80;50.00;;;;;;5110120;27;45414;-76
2022/12/04 04:45:13;;;;;;;4.72;3.85;;;15.80;50.00;;;;;;5109546;27;46365;-76
2022/12/04 04:47:44;;;;;;;4.13;3.67;;;15.80;50.00;;;;;;5104959;27;45481;-76
2022/12/04 04:50:11;;;;;;;3.92;3.53;;;15.80;50.00;;;;;;5110103;27;45123;-75
2022/12/04 04:52:39;;;;;;;4.53;3.80;;;15.80;50.00;;;;;;5109572;27;45312;-75
2022/12/04 04:55:07;;;;;;;4.82;3.80;;;15.80;50.00;;;;;;5109906;27;46504;-75
2022/12/04 04:57:35;;;;;;;4.20;3.78;;;15.80;50.10;;;;;;5109846;27;45266;-76
2022/12/04 05:00:04;;;;;;;4.57;3.75;;;15.70;50.10;;;;;;5109490;27;45275;-76
2022/12/04 05:02:31;;;;;;;4.30;3.38;;;15.70;50.10;;;;;;5109755;27;45288;-75
2022/12/04 05:04:58;;;;;;;5.22;4.18;;;15.70;50.20;;;;;;5109465;27;46407;-75
2022/12/04 05:07:25;;;;;;;4.47;3.65;;;15.60;50.20;;;;;;5109576;27;45207;-75
2022/12/04 05:09:52;;;;;;;5.03;3.58;;;15.60;50.20;;;;;;5109667;27;45133;-75
2022/12/04 05:12:19;;;;;;;3.90;3.47;;;15.60;50.20;;;;;;5109920;27;45237;-75
2022/12/04 05:14:48;;;;;;;5.00;3.63;;;15.60;50.30;;;;;;5108581;27;46401;-75
2022/12/04 05:17:15;;;;;;;4.28;3.60;;;15.50;50.30;;;;;;5109261;27;45275;-76
2022/12/04 05:19:54;;;;;;;5.40;3.75;;;15.50;50.30;;;;;;5109423;27;45189;-75
2022/12/04 05:22:22;;;;;;;5.18;3.60;;;15.50;50.30;;;;;;5109596;27;45502;-76
2022/12/04 05:24:51;;;;;;;4.15;3.67;;;15.40;50.40;;;;;;5109047;27;46639;-76
2022/12/04 05:27:17;;;;;;;3.60;2.92;;;15.40;50.40;;;;;;5109236;27;45210;-76
2022/12/04 05:29:44;;;;;;;3.35;2.90;;;15.40;50.40;;;;;;5109407;27;45262;-75
2022/12/04 05:32:13;;;;;;;5.07;3.75;;;15.40;50.40;;;;;;5109454;27;45380;-75
2022/12/04 05:34:40;;;;;;;3.53;3.10;;;15.30;50.40;;;;;;5109117;27;47618;-76
2022/12/04 05:37:07;;;;;;;3.33;3.03;;;15.40;51.10;;;;;;5109388;27;45262;-75
2022/12/04 05:39:34;;;;;;;3.25;2.85;;;15.30;50.50;;;;;;5109602;27;45390;-76
2022/12/04 05:42:01;;;;;;;3.50;3.05;;;15.30;50.50;;;;;;5109466;27;45549;-76
2022/12/04 05:44:28;;;;;;;3.55;3.25;;;15.30;51.10;;;;;;5108822;27;46725;-76
2022/12/04 05:46:55;;;;;;;4.13;3.30;;;15.30;50.50;;;;;;5098474;27;45357;-76
2022/12/04 05:49:23;;;;;;;4.07;2.88;;;15.30;50.60;;;;;;5088534;28;45211;-75
2022/12/04 05:51:50;;;;;;;4.25;3.35;;;15.30;50.60;;;;;;5088192;28;45299;-76
2022/12/04 05:54:17;;;;;;;3.65;3.13;;;15.20;50.60;;;;;;5087858;28;46738;-76
2022/12/04 05:56:44;;;;;;;3.45;3.00;;;15.30;50.70;;;;;;5088327;28;45248;-75
2022/12/04 05:59:11;;;;;;;3.05;2.75;;;15.30;50.50;;;;;;5088495;28;45228;-75
2022/12/04 06:01:38;;;;;;;3.72;3.15;;;15.30;50.30;;;;;;5088013;28;45348;-76
2022/12/04 06:04:05;;;;;;;4.07;2.92;;;15.40;50.30;;;;;;5087687;28;45327;-74
2022/12/04 06:06:33;;;;;;;3.47;2.80;;;15.50;50.20;;;;;;5088008;28;45369;-75
2022/12/04 06:09:00;;;;;;;3.72;2.72;;;15.50;50.60;;;;;;5088514;28;45317;-76
2022/12/04 06:11:28;;;;;;;3.97;2.90;;;15.60;50.00;;;;;;5088415;28;45205;-75
2022/12/04 06:13:55;;;;;;;3.85;3.05;;;15.60;50.50;;;;;;5087905;28;45447;-75
2022/12/04 06:16:23;;;;;;;3.70;3.05;;;15.70;49.80;;;;;;5087813;28;45293;-75
2022/12/04 06:18:50;;;;;;;3.92;2.90;;;15.70;49.70;;;;;;5087866;28;45202;-75
2022/12/04 06:21:17;;;;;;;3.63;2.97;;;15.80;49.80;;;;;;5088095;28;45435;-75
2022/12/04 06:23:46;;;;;;;3.30;2.75;;;15.80;49.70;;;;;;5087705;28;46361;-75
2022/12/04 06:26:13;;;;;;;3.65;2.85;;;15.80;49.70;;;;;;5087942;28;45990;-75
2022/12/04 06:28:39;;;;;;;3.33;3.03;;;15.80;49.60;;;;;;5087744;28;45244;-75
2022/12/04 06:31:07;;;;;;;3.47;3.17;;;15.80;49.60;;;;;;5087770;28;45629;-75
2022/12/04 06:33:34;;;;;;;3.40;3.10;;;15.80;49.60;;;;;;5087863;28;45574;-75
2022/12/04 06:36:01;;;;;;;4.00;3.30;;;15.80;49.60;;;;;;5087494;28;45331;-75
2022/12/04 06:38:28;;;;;;;3.38;3.08;;;15.80;49.60;;;;;;5087602;28;45319;-75
2022/12/04 06:40:56;;;;;;;4.15;3.28;;;15.80;49.60;;;;;;5087927;28;45397;-75
2022/12/04 06:43:23;;;;;;;3.28;2.97;;;15.80;49.80;;;;;;5087451;28;45583;-75
2022/12/04 06:45:58;;;;;;;3.08;2.83;;;15.80;49.60;;;;;;5086793;27;45382;-74
2022/12/04 06:48:27;;;;;;;3.15;2.78;;;15.80;49.60;;;;;;5089725;27;45336;-75
2022/12/04 06:50:58;;;;;;;4.40;3.20;;;15.80;50.20;;;;;;5087408;28;45763;-75
2022/12/04 06:53:26;;;;;;;4.47;3.10;;;15.80;49.60;;;;;;5087422;28;45456;-75
2022/12/04 06:55:53;;;;;;;3.47;3.17;;;15.80;49.70;;;;;;5087376;28;45359;-75
2022/12/04 06:58:21;;;;;;;2.88;2.53;;;15.80;49.60;;;;;;5087318;27;45365;-74
2022/12/04 07:00:48;;;;;;;3.20;2.90;;;15.80;49.70;;;;;;5087540;28;45183;-75
2022/12/04 07:03:15;;;;;;;3.47;3.17;;;15.70;49.60;;;;;;5087270;28;45358;-75
2022/12/04 07:05:42;;;;;;;3.13;2.80;;;15.70;49.60;;;;;;5087435;28;45309;-75
2022/12/04 07:08:09;;;;;;;3.25;2.70;;;15.70;49.60;;;;;;5087234;28;45330;-75
2022/12/04 07:10:36;;;;;;;4.60;2.85;;;15.70;49.70;;;;;;5087481;28;45325;-75
2022/12/04 07:13:03;;;;;;;3.20;2.90;;;15.70;49.70;;;;;;5087106;28;45206;-75
2022/12/04 07:15:32;;;;;;;3.78;3.00;;;15.60;49.70;;;;;;5087143;28;45172;-75
2022/12/04 07:17:58;;;;;;;3.67;3.13;;;15.60;49.70;;;;;;5087512;28;45293;-75
2022/12/04 07:20:25;;;;;;;3.75;3.10;;;15.60;49.80;;;;;;5087843;28;45324;-75
2022/12/04 07:22:52;;;;;;;3.28;2.72;;;15.60;49.80;;;;;;5087132;28;45235;-75
2022/12/04 07:25:19;;;;;;;4.18;2.83;;;15.60;49.90;;;;;;5086992;28;45217;-75
2022/12/04 07:27:46;;;;;;;3.30;2.90;;;15.50;49.80;;;;;;5087005;28;45371;-75
2022/12/04 07:30:14;;;;;;;3.45;3.13;;;15.50;49.90;;;;;;5087274;28;45401;-75
2022/12/04 07:32:42;;;;;;;3.55;2.92;;;15.50;49.90;;;;;;5086511;28;45643;-74
2022/12/04 07:35:09;;;;;;;2.72;2.45;;;15.40;49.90;;;;;;5086271;28;45202;-75
2022/12/04 07:37:36;;;;;;;3.47;3.17;;;15.40;50.00;;;;;;5087204;28;45325;-75
2022/12/04 07:40:04;;;;;;;3.35;3.05;;;15.40;50.10;;;;;;5087065;28;45669;-75
2022/12/04 07:42:31;;;;;;;2.63;2.42;;;15.40;50.10;;;;;;5086533;28;45700;-75
2022/12/04 07:44:59;;;;;;;3.28;2.97;;;15.30;50.10;;;;;;5086718;28;45143;-75
2022/12/04 07:47:26;;;;;;;2.85;2.55;;;15.30;50.20;;;;;;5095561;27;45431;-75
2022/12/04 07:49:54;;;;;;;3.45;3.13;;;15.30;50.20;;;;;;5107514;27;45355;-74
2022/12/04 07:52:21;;;;;;;3.42;2.80;;;15.30;50.20;;;;;;5106728;27;46751;-75
2022/12/04 07:54:48;;;;;;;4.22;2.90;;;15.30;50.20;;;;;;5106950;27;45278;-75
2022/12/04 07:57:15;;;;;;;3.97;2.72;;;15.20;50.20;;;;;;5107274;27;45189;-75
2022/12/04 07:59:42;;;;;;;3.30;3.00;;;15.20;50.30;;;;;;5107348;27;45335;-75
2022/12/04 08:02:09;;;;;;;3.13;2.72;;;15.20;50.30;;;;;;5106845;27;46740;-75
2022/12/04 08:04:37;;;;;;;4.18;2.70;;;15.20;50.30;;;;;;5106714;27;45360;-75
2022/12/04 08:07:05;;;;;;;3.17;2.67;;;15.20;50.40;;;;;;5106999;27;45201;-75
2022/12/04 08:09:32;;;;;;;3.17;2.88;;;15.30;50.30;;;;;;5108772;27;45309;-75
2022/12/04 08:11:59;;;;;;;3.00;2.70;;;15.30;50.20;;;;;;5110299;27;45539;-74
2022/12/04 08:14:26;;;;;;;2.72;2.50;;;15.40;50.20;;;;;;5110381;27;45447;-74
2022/12/04 08:16:52;;;;;;;2.90;2.60;;;15.40;50.10;;;;;;5110319;27;45260;-75
2022/12/04 08:19:19;;;;;;;3.60;2.80;;;15.50;50.00;;;;;;5110416;27;45230;-75
2022/12/04 08:21:46;;;;;;;3.97;2.97;;;15.50;49.80;;;;;;5110782;27;46693;-75
2022/12/04 08:24:15;;;;;;;3.00;2.65;;;15.60;49.80;;;;;;5110540;27;45371;-75
2022/12/04 08:26:42;;;;;;;3.50;2.90;;;15.70;49.70;;;;;;5110965;27;45261;-75
2022/12/04 08:29:08;;;;;;;3.72;2.83;;;15.70;49.60;;;;;;5110797;27;45450;-75
2022/12/04 08:31:36;;;;;;;3.17;2.88;;;15.80;49.60;;;;;;5110177;27;46626;-75
2022/12/04 08:34:04;;;;;;;2.97;2.67;;;15.80;49.40;;;;;;5110006;27;45355;-74
2022/12/04 08:36:31;;;;;;;3.30;2.85;;;15.90;49.40;;;;;;5110817;27;45299;-74
2022/12/04 08:38:58;;;;;;;3.50;2.85;;;15.90;49.40;;;;;;5110702;27;45224;-75
2022/12/04 08:41:26;;;;;;;2.75;2.55;;;15.90;49.40;;;;;;5110485;27;45717;-75
2022/12/04 08:43:54;;;;;;;3.25;2.95;;;15.90;49.40;;;;;;5110177;27;45365;-75
2022/12/04 08:46:21;;;;;;;3.22;2.72;;;15.90;49.30;;;;;;5105668;27;45340;-75
2022/12/04 08:48:48;;;;;;;3.70;2.85;;;15.90;49.30;;;;;;5069307;28;45111;-75
2022/12/04 08:51:16;;;;;;;4.32;2.95;;;15.90;49.30;;;;;;5068562;28;45494;-75
2022/12/04 08:53:43;;;;;;;2.97;2.70;;;15.90;49.40;;;;;;5068452;28;45289;-75
2022/12/04 08:56:09;;;;;;;3.25;2.90;;;15.90;49.30;;;;;;5068652;28;45425;-75
2022/12/04 08:58:38;;;;;;;3.20;2.40;;;15.90;49.40;;;;;;5068910;28;45244;-75
2022/12/04 09:01:06;;;;;;;3.47;2.90;;;15.90;49.40;;;;;;5067927;28;46725;-72
2022/12/04 09:03:33;;;;;;;3.58;2.75;;;15.90;49.40;;;;;;5067626;28;45388;-75
2022/12/04 09:05:59;;;;;;;3.28;2.85;;;15.80;49.40;;;;;;5068633;28;45438;-75
2022/12/04 09:08:26;;;;;;;2.95;2.65;;;15.80;50.00;;;;;;5068982;28;45354;-75
2022/12/04 09:10:53;;;;;;;3.97;2.67;;;15.80;49.50;;;;;;5068282;28;46691;-75
2022/12/04 09:13:20;;;;;;;3.10;2.80;;;15.80;49.40;;;;;;5068354;28;45208;-75
2022/12/04 09:15:49;;;;;;;3.47;2.90;;;15.80;49.50;;;;;;5068613;28;45447;-75
2022/12/04 09:18:16;;;;;;;3.17;2.75;;;15.80;49.50;;;;;;5068527;28;45492;-74
2022/12/04 09:20:42;;;;;;;4.18;3.03;;;15.80;49.50;;;;;;5066693;28;46406;-74
2022/12/04 09:23:09;;;;;;;3.63;2.92;;;15.80;49.50;;;;;;5068286;28;45201;-75
2022/12/04 09:25:36;;;;;;;4.55;2.83;;;15.80;49.60;;;;;;5068130;28;45165;-75
2022/12/04 09:28:03;;;;;;;3.33;3.03;;;15.80;49.60;;;;;;5068488;28;45356;-74
2022/12/04 09:30:30;;;;;;;3.28;2.97;;;15.70;49.50;;;;;;5068034;28;46382;-74
2022/12/04 09:32:58;;;;;;;3.22;2.80;;;15.70;49.50;;;;;;5068230;28;45201;-75
2022/12/04 09:35:25;;;;;;;2.92;2.58;;;15.70;49.60;;;;;;5068183;28;45227;-75
2022/12/04 09:37:52;;;;;;;3.03;2.63;;;15.70;50.20;;;;;;5068290;28;45479;-75
2022/12/04 09:40:23;;;;;;;3.33;2.72;;;15.60;49.60;;;;;;5067884;28;45310;-75
2022/12/04 09:42:52;;;;;;;4.07;3.10;;;15.60;49.60;;;;;;5067904;28;45368;-74
2022/12/04 09:45:20;;;;;;;4.43;2.28;;;15.60;49.70;;;;;;5067896;28;45413;-74
2022/12/04 09:47:51;;;;;;;3.10;2.70;;;15.60;49.60;;;;;;5088745;27;45408;-74
2022/12/04 09:50:21;;;;;;;3.40;3.00;;;15.60;49.70;;;;;;5087689;28;45345;-75
2022/12/04 09:52:54;;;;;;;3.90;3.13;;;15.60;49.80;;;;;;5087790;28;45454;-75
2022/12/04 09:55:23;;;;;;;3.38;2.65;;;15.50;49.70;;;;;;5088466;28;45341;-75
2022/12/04 09:57:52;;;;;;;3.22;2.88;;;15.50;49.80;;;;;;5088236;28;45190;-75
2022/12/04 10:00:19;;;;;;;3.50;2.90;;;15.50;49.80;;;;;;5085878;28;45532;-74
2022/12/04 10:02:49;;;;;;;3.58;2.88;;;15.50;50.00;;;;;;5077370;28;45557;-75
2022/12/04 10:05:20;;;;;;;3.85;3.35;;;15.40;49.90;;;;;;5069309;28;45534;-76
2022/12/04 10:07:52;;;;;;;2.70;2.50;;;15.40;50.00;;;;;;5067786;28;45419;-75
2022/12/04 10:10:23;;;;;;;3.47;2.97;;;15.40;50.10;;;;;;5086285;28;47600;-76
2022/12/04 10:12:54;;;;;;;3.03;2.63;;;15.30;50.10;;;;;;5067592;28;45422;-76
2022/12/04 10:15:27;;;;;;;4.38;3.25;;;15.30;50.20;;;;;;5072616;28;45334;-76
2022/12/04 10:18:30;;;;;;;4.43;3.05;;;15.30;50.20;;;;;;5087980;28;45307;-76
2022/12/04 10:21:05;;;;;;;3.35;3.03;;;15.30;50.30;;;;;;5083236;28;46721;-75
2022/12/04 10:23:38;;;;;;;3.63;2.70;;;15.30;51.00;;;;;;5088836;28;45318;-76
2022/12/04 10:26:05;;;;;;;2.83;2.63;;;15.30;50.30;;;;;;5088659;28;45221;-75
2022/12/04 10:28:33;;;;;;;3.75;3.05;;;15.40;50.30;;;;;;5077631;28;45351;-75
2022/12/04 10:31:01;;;;;;;3.20;2.90;;;15.40;50.20;;;;;;5084275;28;45780;-77
2022/12/04 10:33:33;;;;;;;3.30;2.90;;;15.50;50.20;;;;;;5082792;28;45349;-74
2022/12/04 10:36:01;;;;;;;3.95;3.20;;;15.50;50.00;;;;;;5086762;28;45284;-77
2022/12/04 10:38:32;;;;;;;3.03;2.70;;;15.60;49.90;;;;;;5083440;28;45512;-75
2022/12/04 10:41:00;;;;;;;3.50;3.13;;;15.60;49.80;;;;;;5084872;28;45514;-77
2022/12/04 10:43:31;;;;;;;3.70;3.20;;;15.70;49.80;;;;;;5082683;28;45237;-74
2022/12/04 10:45:58;;;;;;;4.15;2.95;;;15.70;49.70;;;;;;5085290;27;45405;-74
2022/12/04 10:48:36;;;;;;;3.38;3.00;;;15.80;49.70;;;;;;5087504;27;45373;-74
2022/12/04 10:51:04;;;;;;;3.80;3.08;;;15.80;49.70;;;;;;5083153;28;45371;-74
2022/12/04 10:53:32;;;;;;;4.55;3.00;;;15.80;49.60;;;;;;5081302;28;45214;-73
2022/12/04 10:56:11;;;;;;;3.20;2.88;;;15.80;49.60;;;;;;5076307;28;45662;-74
2022/12/04 10:58:38;;;;;;;3.13;2.83;;;15.80;49.50;;;;;;5075478;28;45246;-74
2022/12/04 11:01:05;;;;;;;4.28;3.22;;;15.80;49.60;;;;;;5078064;28;46411;-75
2022/12/04 11:03:32;;;;;;;3.92;3.25;;;15.80;49.50;;;;;;5075897;28;45650;-75
2022/12/04 11:06:00;;;;;;;4.90;3.58;;;15.90;49.50;;;;;;5083059;28;45285;-73
2022/12/04 11:08:31;;;;;;;4.45;3.13;;;15.90;49.50;;;;;;5075268;28;45413;-74
2022/12/04 11:11:00;;;;;;;4.43;3.30;;;15.80;49.50;;;;;;5076009;28;46712;-73
2022/12/04 11:13:26;;;;;;;4.25;3.45;;;15.80;49.50;;;;;;5078060;28;45447;-73
2022/12/04 11:15:55;;;;;;;3.65;3.30;;;15.80;49.60;;;;;;5078175;28;45490;-74
2022/12/04 11:18:23;;;;;;;3.97;3.22;;;15.80;49.60;;;;;;5082557;28;45497;-75
2022/12/04 11:20:51;;;;;;;4.15;2.83;;;15.90;49.70;;;;;;5082741;28;45496;-73
2022/12/04 11:23:17;;;;;;;4.75;3.40;;;15.80;49.70;;;;;;5084516;28;45249;-74
2022/12/04 11:25:47;;;;;;;4.18;3.35;;;15.80;49.70;;;;;;5086683;28;45289;-74
2022/12/04 11:28:16;;;;;;;3.75;3.25;;;15.80;49.60;;;;;;5085447;28;45280;-74
2022/12/04 11:30:48;;;;;;;3.35;3.05;;;15.80;49.70;;;;;;5081329;28;45605;-76
2022/12/04 11:33:16;;;;;;;4.25;3.13;;;15.80;49.70;;;;;;5070462;28;45510;-74
2022/12/04 11:35:43;;;;;;;5.13;3.22;;;15.80;49.70;;;;;;5083885;28;45487;-75
2022/12/04 11:38:14;;;;;;;4.13;3.38;;;15.70;49.70;;;;;;5082809;28;45474;-73
2022/12/04 11:40:47;;;;;;;4.75;3.75;;;15.70;50.30;;;;;;5084779;28;45552;-74
2022/12/04 11:43:16;;;;;;;3.72;3.22;;;15.70;49.70;;;;;;5084887;27;45494;-74
2022/12/04 11:45:53;;;;;;;4.00;3.45;;;15.70;49.80;;;;;;5085144;28;45370;-75
2022/12/04 11:48:21;;;;;;;3.40;3.10;;;15.70;49.80;;;;;;5090599;27;45181;-79
2022/12/04 11:50:50;;;;;;;4.72;3.85;;;15.70;49.80;;;;;;5089384;28;45336;-77
2022/12/04 11:53:18;;;;;;;3.63;3.10;;;15.70;49.90;;;;;;5083464;28;45315;-75
2022/12/04 11:56:13;;;;;;;3.55;3.20;;;15.60;49.80;;;;;;5086823;28;45509;-80
2022/12/04 11:58:56;;;;;;;3.80;3.30;;;15.60;49.90;;;;;;5080689;28;45216;-76
2022/12/04 12:01:30;;;;;;;3.58;3.20;;;15.60;50.50;;;;;;5087605;28;46688;-79
2022/12/04 12:04:19;;;;;;;4.38;3.42;;;15.50;50.00;;;;;;5090019;28;45431;-78
2022/12/04 12:06:53;;;;;;;3.45;3.08;;;15.50;50.00;;;;;;5072195;28;45213;-78
2022/12/04 12:09:23;;;;;;;3.90;3.40;;;15.50;50.00;;;;;;5071741;28;45256;-77
2022/12/04 12:11:53;;;;;;;4.70;3.78;;;15.50;50.10;;;;;;5089623;28;46672;-80
2022/12/04 12:14:24;;;;;;;3.53;3.22;;;15.40;50.10;;;;;;5079375;28;45439;-77
2022/12/04 12:16:57;;;;;;;4.63;3.38;;;15.40;50.20;;;;;;5080502;28;45401;-76
2022/12/04 12:19:49;;;;;;;4.57;3.50;;;15.40;50.20;;;;;;5081940;28;45353;-77
2022/12/04 12:22:20;;;;;;;4.80;3.47;;;15.30;50.30;;;;;;5070001;28;45475;-79
2022/12/04 12:24:52;;;;;;;4.47;3.33;;;15.30;50.30;;;;;;5078698;28;45314;-80
2022/12/04 12:27:30;;;;;;;5.00;3.72;;;15.30;50.40;;;;;;5073888;28;45320;-80
2022/12/04 12:30:00;;;;;;;4.55;3.30;;;15.30;50.50;;;;;;5069335;28;45297;-79
2022/12/04 12:32:52;;;;;;;4.53;3.22;;;15.30;50.50;;;;;;5082270;28;46832;-82
2022/12/04 12:35:21;;;;;;;4.32;3.15;;;15.30;50.60;;;;;;5074715;28;45440;-77
2022/12/04 12:37:49;;;;;;;3.95;3.15;;;15.30;50.50;;;;;;5077104;28;45311;-76
2022/12/04 12:40:27;;;;;;;5.68;3.50;;;15.30;50.30;;;;;;5078403;28;45315;-76
2022/12/04 12:42:57;;;;;;;4.85;3.55;;;15.40;50.30;;;;;;5077850;28;45537;-75
2022/12/04 12:45:26;;;;;;;6.03;3.83;;;15.50;50.80;;;;;;5082731;28;45545;-74
2022/12/04 12:47:55;;;;;;;4.78;3.47;;;15.60;50.80;;;;;;5086442;27;45197;-75
2022/12/04 12:50:23;;;;;;;7.03;3.60;;;15.70;50.70;;;;;;5077101;28;45470;-75
2022/12/04 12:52:53;;;;;;;5.57;3.60;;;15.70;50.40;;;;;;5078926;28;46540;-75
2022/12/04 12:55:22;;;;;;;5.97;3.67;;;15.80;50.20;;;;;;5079012;27;45123;-75
2022/12/04 12:57:56;;;;;;;5.70;3.72;;;15.90;50.10;;;;;;5077204;28;45308;-75
2022/12/04 13:00:24;;;;;;;6.38;3.45;;;15.90;50.00;;;;;;5069179;28;45393;-75
2022/12/04 13:02:53;;;;;;;3.83;3.40;;;15.90;49.90;;;;;;5068358;28;47528;-75
2022/12/04 13:05:22;;;;;;;3.92;3.33;;;15.90;49.80;;;;;;5068096;28;45340;-76